createdAt,value
2022-12-27T00:01:16.538Z,93.22
2022-12-27T00:05:10.660Z,93.52
2022-12-27T00:09:04.578Z,93.80
2022-12-27T00:12:57.415Z,93.80
2022-12-27T00:16:50.127Z,93.80
2022-12-27T00:20:42.773Z,94.15
2022-12-27T00:24:35.888Z,94.26
2022-12-27T00:28:31.715Z,94.31
2022-12-27T00:32:24.455Z,94.20
2022-12-27T00:36:19.967Z,93.90
2022-12-27T00:40:12.999Z,93.55
2022-12-27T00:44:05.655Z,93.41
2022-12-27T00:47:58.322Z,93.47
2022-12-27T00:51:51.087Z,93.62
2022-12-27T00:55:44.468Z,93.72
2022-12-27T00:59:36.999Z,93.82
2022-12-27T01:03:29.747Z,93.40
2022-12-27T01:07:22.704Z,93.46
2022-12-27T01:11:16.934Z,93.71
2022-12-27T01:15:10.649Z,93.69
2022-12-27T01:19:03.253Z,93.78
2022-12-27T01:22:55.886Z,93.98
2022-12-27T01:26:48.529Z,94.02
2022-12-27T01:30:41.500Z,94.02
2022-12-27T01:34:34.164Z,94.01
2022-12-27T01:38:26.845Z,94.00
2022-12-27T01:42:38.430Z,94.21
2022-12-27T01:46:31.240Z,94.33
2022-12-27T01:50:34.327Z,94.41
2022-12-27T01:54:27.314Z,94.45
2022-12-27T01:58:41.102Z,94.37
2022-12-27T02:02:34.241Z,94.27
2022-12-27T02:06:30.010Z,94.07
2022-12-27T02:10:22.981Z,93.73
2022-12-27T02:14:19.523Z,93.63
2022-12-27T02:18:13.897Z,93.62
2022-12-27T02:22:56.332Z,93.53
2022-12-27T02:26:50.928Z,93.54
2022-12-27T02:30:45.121Z,93.74
2022-12-27T02:34:56.415Z,93.80
2022-12-27T02:38:53.713Z,93.85
2022-12-27T02:43:06.793Z,93.73
2022-12-27T02:47:17.973Z,93.71
2022-12-27T02:51:51.762Z,93.58
2022-12-27T02:56:14.116Z,93.42
2022-12-27T03:00:30.673Z,93.31
2022-12-27T03:04:35.575Z,93.38
2022-12-27T03:08:41.832Z,93.35
2022-12-27T03:12:56.361Z,93.31
2022-12-27T03:17:02.109Z,93.11
2022-12-27T03:21:19.421Z,93.17
2022-12-27T03:25:29.323Z,93.14
2022-12-27T03:29:41.628Z,92.98
2022-12-27T03:33:37.549Z,92.80
2022-12-27T03:37:54.945Z,92.85
2022-12-27T03:42:46.536Z,92.66
2022-12-27T03:46:43.791Z,92.38
2022-12-27T03:50:44.025Z,92.36
2022-12-27T03:54:39.689Z,92.51
2022-12-27T03:58:33.231Z,92.52
2022-12-27T04:02:25.977Z,92.68
2022-12-27T04:06:18.721Z,92.74
2022-12-27T04:10:32.013Z,92.41
2022-12-27T04:14:43.782Z,92.57
2022-12-27T04:18:55.210Z,92.72
2022-12-27T04:23:06.941Z,92.76
2022-12-27T04:27:18.191Z,92.84
2022-12-27T04:31:29.491Z,92.58
2022-12-27T04:35:22.430Z,92.75
2022-12-27T04:39:15.707Z,92.97
2022-12-27T04:43:27.831Z,92.29
2022-12-27T04:47:40.821Z,92.18
2022-12-27T04:51:52.381Z,91.90
2022-12-27T04:55:44.815Z,91.75
2022-12-27T04:59:56.289Z,92.11
2022-12-27T05:03:52.421Z,92.22
2022-12-27T05:08:03.699Z,92.19
2022-12-27T05:12:14.852Z,91.99
2022-12-27T05:16:07.878Z,91.71
2022-12-27T05:20:00.640Z,91.92
2022-12-27T05:24:12.041Z,91.64
2022-12-27T05:28:07.837Z,91.78
2022-12-27T05:32:00.483Z,91.74
2022-12-27T05:35:53.101Z,91.65
2022-12-27T05:39:45.935Z,90.87
2022-12-27T05:43:38.900Z,91.09
2022-12-27T05:47:31.495Z,90.80
2022-12-27T05:51:24.442Z,91.06
2022-12-27T05:55:17.413Z,90.97
2022-12-27T05:59:10.352Z,91.25
2022-12-27T06:03:03.664Z,90.66
2022-12-27T06:06:56.311Z,90.21
2022-12-27T06:10:48.951Z,90.34
2022-12-27T06:14:41.581Z,90.07
2022-12-27T06:18:35.812Z,89.42
2022-12-27T06:22:28.357Z,89.10
2022-12-27T06:26:26.793Z,89.19
2022-12-27T06:30:19.701Z,89.39
2022-12-27T06:34:12.617Z,88.27
2022-12-27T06:38:05.302Z,88.17
2022-12-27T06:41:58.138Z,88.33
2022-12-27T06:45:58.436Z,88.60
2022-12-27T06:49:51.363Z,88.34
2022-12-27T06:53:44.257Z,87.90
2022-12-27T06:57:36.988Z,87.53
2022-12-27T07:01:29.888Z,87.43
2022-12-27T07:05:22.620Z,87.50
2022-12-27T07:09:15.528Z,87.39
2022-12-27T07:13:08.222Z,87.50
2022-12-27T07:17:00.950Z,87.48
2022-12-27T07:20:54.183Z,87.84
2022-12-27T07:24:46.909Z,88.28
2022-12-27T07:28:40.500Z,87.81
2022-12-27T07:32:33.871Z,87.39
2022-12-27T07:36:29.740Z,86.93
2022-12-27T07:40:22.527Z,86.95
2022-12-27T07:44:15.302Z,86.86
2022-12-27T07:48:08.148Z,86.18
2022-12-27T07:52:00.957Z,86.09
2022-12-27T07:55:54.041Z,85.40
2022-12-27T07:59:47.014Z,85.17
2022-12-27T08:03:41.109Z,85.37
2022-12-27T08:07:33.924Z,85.20
2022-12-27T08:11:26.859Z,85.09
2022-12-27T08:15:19.432Z,85.18
2022-12-27T08:19:12.258Z,85.31
2022-12-27T08:23:05.587Z,84.48
2022-12-27T08:26:58.322Z,84.43
2022-12-27T08:30:51.046Z,84.24
2022-12-27T08:34:43.397Z,84.47
2022-12-27T08:38:36.244Z,84.29
2022-12-27T08:42:28.896Z,83.92
2022-12-27T08:46:21.942Z,83.83
2022-12-27T08:50:14.769Z,83.00
2022-12-27T08:54:07.799Z,81.86
2022-12-27T08:58:03.361Z,81.54
2022-12-27T09:01:56.468Z,81.23
2022-12-27T09:05:52.594Z,80.51
2022-12-27T09:09:45.555Z,79.38
2022-12-27T09:13:38.544Z,79.62
2022-12-27T09:17:31.661Z,79.40
2022-12-27T09:21:26.733Z,78.96
2022-12-27T09:25:19.761Z,78.02
2022-12-27T09:29:12.642Z,78.21
2022-12-27T09:33:05.336Z,76.89
2022-12-27T09:36:57.820Z,76.21
2022-12-27T09:41:02.039Z,75.75
2022-12-27T09:45:26.360Z,74.82
2022-12-27T09:49:31.343Z,74.23
2022-12-27T09:53:46.983Z,73.03
2022-12-27T09:57:41.805Z,70.68
2022-12-27T10:01:37.238Z,71.60
2022-12-27T10:05:34.379Z,71.86
2022-12-27T10:09:39.943Z,68.77
2022-12-27T10:13:32.576Z,68.80
2022-12-27T10:18:09.737Z,69.26
2022-12-27T10:22:36.463Z,67.13
2022-12-27T10:26:29.143Z,67.82
2022-12-27T10:30:23.069Z,68.39
2022-12-27T10:34:18.405Z,65.01
2022-12-27T10:38:11.741Z,65.51
2022-12-27T10:42:30.487Z,66.99
2022-12-27T10:46:30.712Z,65.98
2022-12-27T10:50:28.499Z,64.17
2022-12-27T10:54:30.237Z,64.60
2022-12-27T10:58:40.211Z,64.51
2022-12-27T11:02:33.300Z,64.46
2022-12-27T11:06:26.620Z,65.25
2022-12-27T11:10:31.664Z,65.28
2022-12-27T11:14:24.278Z,65.37
2022-12-27T11:18:20.612Z,65.18
2022-12-27T11:22:13.912Z,65.27
2022-12-27T11:26:07.673Z,63.53
2022-12-27T11:30:00.924Z,64.30
2022-12-27T11:33:59.428Z,64.61
2022-12-27T11:37:52.695Z,65.10
2022-12-27T11:41:54.997Z,65.35
2022-12-27T11:45:51.247Z,65.88
2022-12-27T11:49:55.735Z,66.09
2022-12-27T11:54:24.849Z,64.53
2022-12-27T11:58:40.578Z,65.11
2022-12-27T12:03:06.009Z,63.36
2022-12-27T12:07:26.259Z,62.94
2022-12-27T12:11:43.017Z,61.91
2022-12-27T12:15:59.910Z,62.28
2022-12-27T12:20:13.951Z,62.15
2022-12-27T12:24:31.260Z,61.18
2022-12-27T12:28:56.232Z,61.93
2022-12-27T12:33:01.335Z,63.42
2022-12-27T12:37:27.033Z,63.72
2022-12-27T12:41:59.653Z,60.88
2022-12-27T12:46:04.735Z,61.30
2022-12-27T12:49:57.407Z,60.11
2022-12-27T12:54:05.209Z,58.03
2022-12-27T12:58:24.241Z,59.08
2022-12-27T13:02:45.541Z,60.22
2022-12-27T13:07:00.896Z,61.03
2022-12-27T13:11:02.792Z,61.14
2022-12-27T13:15:23.555Z,60.65
2022-12-27T13:19:36.778Z,60.79
2022-12-27T13:23:46.344Z,59.79
2022-12-27T13:28:26.934Z,60.91
2022-12-27T13:32:51.934Z,60.19
2022-12-27T13:37:08.789Z,60.40
2022-12-27T13:41:16.624Z,61.32
2022-12-27T13:45:36.764Z,61.11
2022-12-27T13:49:52.009Z,60.77
2022-12-27T13:54:21.305Z,60.80
2022-12-27T13:58:32.318Z,59.24
2022-12-27T14:02:57.482Z,60.67
2022-12-27T14:06:59.449Z,60.92
2022-12-27T14:11:00.544Z,61.09
2022-12-27T14:14:57.062Z,60.45
2022-12-27T14:19:12.766Z,60.84
2022-12-27T14:23:20.357Z,61.15
2022-12-27T14:28:13.187Z,60.29
2022-12-27T14:32:24.437Z,60.09
2022-12-27T14:36:31.739Z,60.79
2022-12-27T14:40:44.996Z,61.00
2022-12-27T14:45:15.823Z,60.44
2022-12-27T14:49:10.952Z,60.16
2022-12-27T14:53:54.823Z,60.74
2022-12-27T14:57:53.335Z,60.72
2022-12-27T15:02:46.065Z,60.94
2022-12-27T15:07:02.545Z,61.69
2022-12-27T15:11:21.816Z,61.59
2022-12-27T15:15:26.827Z,62.06
2022-12-27T15:19:28.506Z,62.43
2022-12-27T15:23:35.565Z,62.55
2022-12-27T15:27:30.824Z,63.86
2022-12-27T15:31:38.307Z,63.79
2022-12-27T15:35:53.888Z,64.52
2022-12-27T15:39:48.032Z,65.91
2022-12-27T15:44:14.810Z,65.96
2022-12-27T15:48:25.466Z,65.17
2022-12-27T15:52:45.082Z,66.11
2022-12-27T15:56:43.710Z,64.38
2022-12-27T16:00:36.707Z,63.30
2022-12-27T16:04:56.956Z,63.31
2022-12-27T16:09:24.829Z,61.40
2022-12-27T16:13:39.439Z,62.48
2022-12-27T16:17:55.840Z,62.92
2022-12-27T16:21:49.986Z,64.27
2022-12-27T16:25:44.100Z,64.37
2022-12-27T16:29:43.750Z,64.77
2022-12-27T16:33:41.136Z,66.19
2022-12-27T16:37:45.735Z,66.58
2022-12-27T16:42:00.216Z,66.43
2022-12-27T16:46:30.666Z,64.38
2022-12-27T16:50:47.440Z,66.16
2022-12-27T16:54:57.968Z,64.94
2022-12-27T16:58:51.351Z,64.76
2022-12-27T17:02:46.729Z,64.81
2022-12-27T17:06:39.568Z,64.96
2022-12-27T17:10:42.784Z,65.67
2022-12-27T17:14:38.539Z,65.95
2022-12-27T17:18:35.101Z,66.22
2022-12-27T17:22:34.475Z,66.54
2022-12-27T17:26:49.843Z,66.82
2022-12-27T17:31:02.381Z,68.53
2022-12-27T17:35:28.537Z,67.02
2022-12-27T17:39:42.192Z,67.26
2022-12-27T17:44:10.107Z,68.32
2022-12-27T17:48:38.568Z,69.58
2022-12-27T17:52:50.185Z,69.54
2022-12-27T17:57:16.229Z,69.48
2022-12-27T18:01:09.455Z,70.29
2022-12-27T18:05:06.461Z,70.50
2022-12-27T18:09:00.303Z,69.52
2022-12-27T18:13:01.725Z,69.59
2022-12-27T18:16:54.958Z,69.65
2022-12-27T18:20:55.206Z,69.07
2022-12-27T18:24:50.392Z,69.90
2022-12-27T18:28:43.644Z,70.50
2022-12-27T18:32:36.524Z,70.54
2022-12-27T18:36:32.485Z,70.46
2022-12-27T18:40:26.920Z,70.63
2022-12-27T18:44:27.401Z,70.66
2022-12-27T18:48:23.877Z,70.28
2022-12-27T18:52:41.115Z,71.54
2022-12-27T18:56:35.218Z,72.25
2022-12-27T19:00:29.600Z,72.57
2022-12-27T19:04:33.914Z,72.91
2022-12-27T19:08:35.532Z,73.25
2022-12-27T19:12:37.368Z,73.59
2022-12-27T19:16:34.556Z,73.36
2022-12-27T19:20:35.024Z,74.21
2022-12-27T19:24:33.312Z,73.81
2022-12-27T19:28:28.478Z,73.12
2022-12-27T19:32:34.416Z,73.20
2022-12-27T19:36:32.727Z,72.39
2022-12-27T19:40:26.704Z,72.67
2022-12-27T19:44:20.988Z,73.40
2022-12-27T19:48:14.328Z,73.89
2022-12-27T19:52:15.629Z,74.60
2022-12-27T19:56:12.487Z,74.79
2022-12-27T20:00:14.307Z,75.01
2022-12-27T20:04:08.195Z,74.77
2022-12-27T20:08:01.552Z,74.08
2022-12-27T20:11:55.055Z,74.10
2022-12-27T20:15:49.840Z,74.64
2022-12-27T20:19:43.269Z,74.06
2022-12-27T20:23:39.067Z,75.29
2022-12-27T20:27:33.895Z,75.26
2022-12-27T20:31:27.969Z,75.25
2022-12-27T20:35:21.536Z,73.89
2022-12-27T20:39:15.442Z,73.20
2022-12-27T20:43:08.707Z,73.81
2022-12-27T20:47:02.508Z,74.64
2022-12-27T20:50:55.858Z,74.82
2022-12-27T20:54:54.812Z,75.05
2022-12-27T20:58:48.201Z,75.41
2022-12-27T21:02:41.683Z,74.93
2022-12-27T21:06:35.175Z,74.98
2022-12-27T21:10:28.245Z,75.79
2022-12-27T21:14:21.487Z,75.39
2022-12-27T21:18:14.527Z,75.76
2022-12-27T21:22:07.858Z,75.86
2022-12-27T21:26:14.993Z,76.25
2022-12-27T21:30:09.043Z,76.23
2022-12-27T21:34:02.913Z,77.06
2022-12-27T21:37:55.789Z,77.81
2022-12-27T21:41:48.577Z,78.28
2022-12-27T21:45:41.235Z,78.77
2022-12-27T21:49:35.013Z,78.50
2022-12-27T21:53:27.715Z,78.66
2022-12-27T21:57:20.455Z,79.06
2022-12-27T22:01:14.761Z,79.43
2022-12-27T22:05:08.131Z,79.28
2022-12-27T22:09:03.981Z,79.44
2022-12-27T22:12:58.142Z,79.76
2022-12-27T22:16:50.491Z,79.41
2022-12-27T22:20:46.905Z,78.88
2022-12-27T22:24:39.965Z,79.33
2022-12-27T22:28:32.669Z,80.07
2022-12-27T22:32:25.367Z,80.79
2022-12-27T22:36:23.726Z,79.73
2022-12-27T22:40:40.835Z,79.73
2022-12-27T22:44:29.022Z,80.01
2022-12-27T22:48:21.794Z,80.34
2022-12-27T22:52:14.624Z,80.52
2022-12-27T22:56:22.568Z,81.28
2022-12-27T23:00:16.047Z,81.05
2022-12-27T23:04:11.185Z,81.90
2022-12-27T23:08:07.084Z,82.10
2022-12-27T23:11:59.980Z,82.56
2022-12-27T23:16:00.492Z,83.68
2022-12-27T23:19:53.389Z,82.78
2022-12-27T23:23:46.412Z,82.82
2022-12-27T23:27:39.136Z,82.61
2022-12-27T23:31:32.028Z,82.56
2022-12-27T23:35:24.684Z,82.12
2022-12-27T23:39:17.428Z,81.56
2022-12-27T23:43:42.079Z,82.09
2022-12-27T23:47:22.832Z,81.94
2022-12-27T23:51:16.095Z,83.05
2022-12-27T23:55:09.325Z,82.86
2022-12-27T23:59:02.592Z,82.60
